createdAt,value
2018-08-30T00:00:53.273Z,98944.17
2018-08-30T00:03:20.441Z,98945.84
2018-08-30T00:05:47.530Z,98952.55
2018-08-30T00:08:14.736Z,98957.37
2018-08-30T00:10:41.949Z,98958.64
2018-08-30T00:13:09.093Z,98958.70
2018-08-30T00:15:36.226Z,98960.11
2018-08-30T00:18:03.404Z,98956.63
2018-08-30T00:20:30.521Z,98953.75
2018-08-30T00:22:57.830Z,98952.72
2018-08-30T00:25:25.035Z,98956.25
2018-08-30T00:27:52.229Z,98968.97
2018-08-30T00:30:19.332Z,98968.50
2018-08-30T00:32:46.428Z,98975.96
2018-08-30T00:35:13.601Z,98978.56
2018-08-30T00:37:40.689Z,98985.44
2018-08-30T00:40:07.829Z,98984.72
2018-08-30T00:42:34.926Z,98986.59
2018-08-30T00:45:02.068Z,98994.16
2018-08-30T00:47:29.162Z,98989.05
2018-08-30T00:49:56.299Z,98999.98
2018-08-30T00:52:23.405Z,99001.98
2018-08-30T00:54:50.523Z,98999.59
2018-08-30T00:57:18.092Z,99005.81
2018-08-30T00:59:45.452Z,99008.34
2018-08-30T01:02:12.557Z,99007.70
2018-08-30T01:04:39.697Z,99010.95
2018-08-30T01:07:06.836Z,99014.09
2018-08-30T01:09:34.105Z,99016.45
2018-08-30T01:12:01.246Z,99022.60
2018-08-30T01:14:28.419Z,99025.20
2018-08-30T01:16:55.551Z,99030.50
2018-08-30T01:19:22.706Z,99019.33
2018-08-30T01:21:49.900Z,99019.98
2018-08-30T01:24:17.118Z,99026.48
2018-08-30T01:26:44.419Z,99025.56
2018-08-30T01:29:11.594Z,99026.42
2018-08-30T01:31:38.759Z,99030.89
2018-08-30T01:34:05.889Z,99025.52
2018-08-30T01:36:33.052Z,99026.25
2018-08-30T01:39:00.187Z,99023.98
2018-08-30T01:41:27.338Z,99028.45
2018-08-30T01:43:54.481Z,99030.39
2018-08-30T01:46:21.610Z,99026.79
2018-08-30T01:48:48.700Z,99033.06
2018-08-30T01:51:15.840Z,99038.13
2018-08-30T01:53:42.944Z,99040.19
2018-08-30T01:56:10.049Z,99045.06
2018-08-30T01:58:37.171Z,99039.72
2018-08-30T02:01:04.449Z,99047.13
2018-08-30T02:03:31.620Z,99046.81
2018-08-30T02:05:58.766Z,99054.52
2018-08-30T02:08:25.958Z,99050.51
2018-08-30T02:10:53.145Z,99058.22
2018-08-30T02:13:20.279Z,99054.50
2018-08-30T02:15:47.402Z,99053.00
2018-08-30T02:18:14.574Z,99057.65
2018-08-30T02:20:41.689Z,99059.78
2018-08-30T02:23:08.880Z,99056.03
2018-08-30T02:25:35.979Z,99053.03
2018-08-30T02:28:03.123Z,99054.50
2018-08-30T02:30:30.208Z,99058.57
2018-08-30T02:32:57.330Z,99057.23
2018-08-30T02:35:24.441Z,99057.39
2018-08-30T02:37:51.574Z,99056.73
2018-08-30T02:40:18.666Z,99058.06
2018-08-30T02:42:45.849Z,99053.51
2018-08-30T02:45:12.968Z,99060.03
2018-08-30T02:47:40.079Z,99058.25
2018-08-30T02:50:07.194Z,99062.33
2018-08-30T02:52:34.486Z,99062.34
2018-08-30T02:55:01.638Z,99066.62
2018-08-30T02:57:28.779Z,99066.36
2018-08-30T02:59:55.901Z,99070.37
2018-08-30T03:02:23.094Z,99075.41
2018-08-30T03:04:50.229Z,99071.64
2018-08-30T03:07:17.320Z,99068.47
2018-08-30T03:09:44.456Z,99074.42
2018-08-30T03:12:11.559Z,99074.55
2018-08-30T03:14:38.682Z,99076.55
2018-08-30T03:17:05.781Z,99076.98
2018-08-30T03:19:32.932Z,99074.30
2018-08-30T03:22:00.117Z,99084.47
2018-08-30T03:24:27.267Z,99084.11
2018-08-30T03:26:54.416Z,99094.92
2018-08-30T03:29:21.626Z,99094.02
2018-08-30T03:31:48.725Z,99094.17
2018-08-30T03:34:16.513Z,99095.50
2018-08-30T03:36:43.688Z,99101.81
2018-08-30T03:39:10.828Z,99102.41
2018-08-30T03:41:37.964Z,99106.19
2018-08-30T03:44:05.081Z,99106.48
2018-08-30T03:46:32.182Z,99105.14
2018-08-30T03:48:59.298Z,99101.55
2018-08-30T03:51:26.433Z,99112.58
2018-08-30T03:53:53.534Z,99104.71
2018-08-30T03:56:20.646Z,99111.73
2018-08-30T03:58:47.751Z,99111.02
2018-08-30T04:01:14.884Z,99112.15
2018-08-30T04:03:42.160Z,99116.03
2018-08-30T04:06:09.362Z,99114.04
2018-08-30T04:08:36.512Z,99111.00
2018-08-30T04:11:03.671Z,99124.97
2018-08-30T04:13:30.803Z,99123.69
2018-08-30T04:15:57.970Z,99129.89
2018-08-30T04:18:25.118Z,99131.48
2018-08-30T04:20:52.232Z,99127.91
2018-08-30T04:23:19.386Z,99133.25
2018-08-30T04:25:46.498Z,99131.05
2018-08-30T04:28:13.656Z,99139.71
2018-08-30T04:30:40.759Z,99139.17
2018-08-30T04:33:07.918Z,99143.67
2018-08-30T04:35:35.106Z,99141.20
2018-08-30T04:38:02.281Z,99144.22
2018-08-30T04:40:29.437Z,99152.23
2018-08-30T04:42:56.678Z,99151.52
2018-08-30T04:45:23.801Z,99154.91
2018-08-30T04:47:50.970Z,99154.06
2018-08-30T04:50:18.214Z,99156.06
2018-08-30T04:52:45.281Z,99159.92
2018-08-30T04:55:12.408Z,99164.19
2018-08-30T04:57:39.547Z,99166.38
2018-08-30T05:00:06.722Z,99172.05
2018-08-30T05:02:33.885Z,99174.10
2018-08-30T05:05:01.091Z,99172.00
2018-08-30T05:07:29.022Z,99173.75
2018-08-30T05:09:56.245Z,99181.28
2018-08-30T05:12:23.353Z,99183.20
2018-08-30T05:14:50.513Z,99189.47
2018-08-30T05:17:17.629Z,99192.01
2018-08-30T05:19:44.757Z,99188.13
2018-08-30T05:22:11.939Z,99186.31
2018-08-30T05:24:39.086Z,99192.73
2018-08-30T05:27:06.266Z,99198.93
2018-08-30T05:29:33.599Z,99203.91
2018-08-30T05:32:00.730Z,99201.39
2018-08-30T05:34:27.876Z,99196.33
2018-08-30T05:36:55.685Z,99195.36
2018-08-30T05:39:22.874Z,99206.00
2018-08-30T05:41:50.014Z,99168.05
2018-08-30T05:44:17.167Z,99210.50
2018-08-30T05:46:44.416Z,99204.73
2018-08-30T05:49:11.538Z,99207.83
2018-08-30T05:51:38.782Z,99217.24
2018-08-30T05:54:06.072Z,99213.83
2018-08-30T05:56:33.265Z,99216.93
2018-08-30T05:59:00.394Z,99220.30
2018-08-30T06:01:27.645Z,99221.44
2018-08-30T06:03:54.818Z,99222.77
2018-08-30T06:06:22.015Z,99220.36
2018-08-30T06:08:49.158Z,99221.27
2018-08-30T06:11:16.313Z,99226.89
2018-08-30T06:13:43.435Z,99217.20
2018-08-30T06:16:10.641Z,99228.59
2018-08-30T06:18:38.191Z,99231.05
2018-08-30T06:21:05.708Z,99230.92
2018-08-30T06:23:32.881Z,99230.55
2018-08-30T06:26:00.060Z,99235.10
2018-08-30T06:28:28.016Z,99239.55
2018-08-30T06:30:55.529Z,99243.35
2018-08-30T06:33:22.679Z,99243.37
2018-08-30T06:38:23.789Z,99247.93
2018-08-30T06:40:51.284Z,99243.64
2018-08-30T06:43:18.717Z,99248.80
2018-08-30T06:45:45.966Z,99250.12
2018-08-30T06:48:13.520Z,99256.81
2018-08-30T06:50:42.480Z,99259.86
2018-08-30T06:53:09.695Z,99255.80
2018-08-30T06:55:36.850Z,99263.20
2018-08-30T06:58:03.995Z,99261.46
2018-08-30T07:00:31.167Z,99259.98
2018-08-30T07:02:58.357Z,99266.78
2018-08-30T07:05:26.085Z,99266.84
2018-08-30T07:07:53.414Z,99270.37
2018-08-30T07:10:20.882Z,99272.99
2018-08-30T07:12:48.107Z,99268.41
2018-08-30T07:15:15.314Z,99269.58
2018-08-30T07:17:42.610Z,99271.48
2018-08-30T07:20:09.807Z,99272.99
2018-08-30T07:22:37.460Z,99275.56
2018-08-30T07:25:04.988Z,99280.55
2018-08-30T07:27:32.169Z,99282.20
2018-08-30T07:29:59.302Z,99283.30
2018-08-30T07:32:26.801Z,99288.48
2018-08-30T07:34:54.097Z,99296.36
2018-08-30T07:37:21.134Z,99303.48
2018-08-30T07:39:48.292Z,99300.03
2018-08-30T07:42:15.455Z,99298.75
2018-08-30T07:44:42.615Z,99293.69
2018-08-30T07:47:09.817Z,99299.98
2018-08-30T07:49:36.894Z,99304.16
2018-08-30T07:52:04.029Z,99311.92
2018-08-30T07:54:31.284Z,99315.89
2018-08-30T07:56:58.370Z,99323.97
2018-08-30T07:59:25.903Z,99334.77
2018-08-30T08:01:53.061Z,99327.28
2018-08-30T08:04:20.869Z,99331.59
2018-08-30T08:06:48.037Z,99338.04
2018-08-30T08:09:15.338Z,99341.75
2018-08-30T08:11:42.459Z,99330.23
2018-08-30T08:14:09.743Z,99343.68
2018-08-30T08:16:36.884Z,99342.01
2018-08-30T08:19:04.815Z,99339.66
2018-08-30T08:21:31.981Z,99343.30
2018-08-30T08:23:59.220Z,99351.66
2018-08-30T08:26:26.347Z,99344.96
2018-08-30T08:28:53.823Z,99350.69
2018-08-30T08:31:21.122Z,99350.86
2018-08-30T08:33:48.194Z,99355.08
2018-08-30T08:36:15.369Z,99358.59
2018-08-30T08:38:42.735Z,99362.73
2018-08-30T08:41:09.973Z,99362.73
2018-08-30T08:43:37.096Z,99361.98
2018-08-30T08:46:04.252Z,99361.80
2018-08-30T08:48:31.456Z,99369.67
2018-08-30T08:50:58.633Z,99362.81
2018-08-30T08:53:25.753Z,99362.23
2018-08-30T08:55:52.876Z,99371.33
2018-08-30T08:58:20.005Z,99361.60
2018-08-30T09:00:47.128Z,99373.09
2018-08-30T09:03:14.251Z,99375.52
2018-08-30T09:05:41.474Z,99382.15
2018-08-30T09:08:08.701Z,99378.61
2018-08-30T09:10:35.901Z,99378.61
2018-08-30T09:13:03.099Z,99377.30
2018-08-30T09:15:30.345Z,99379.50
2018-08-30T09:17:57.585Z,99381.33
2018-08-30T09:20:24.723Z,99377.88
2018-08-30T09:22:52.302Z,99378.16
2018-08-30T09:25:19.671Z,99380.97
2018-08-30T09:27:47.757Z,99372.80
2018-08-30T09:30:14.990Z,99381.13
2018-08-30T09:32:42.135Z,99378.45
2018-08-30T09:35:09.308Z,99378.10
2018-08-30T09:37:36.556Z,99380.47
2018-08-30T09:40:03.722Z,99385.23
2018-08-30T09:42:30.912Z,99384.95
2018-08-30T09:44:58.072Z,99382.33
2018-08-30T09:47:25.213Z,99384.80
2018-08-30T09:49:52.525Z,99377.61
2018-08-30T09:52:19.573Z,99386.01
2018-08-30T09:54:46.713Z,99385.70
2018-08-30T09:57:13.994Z,99386.92
2018-08-30T09:59:41.039Z,99392.47
2018-08-30T10:02:13.802Z,99387.69
2018-08-30T10:04:41.071Z,99387.42
2018-08-30T10:07:08.229Z,99385.39
2018-08-30T10:09:35.452Z,99383.65
2018-08-30T10:12:02.684Z,99385.79
2018-08-30T10:14:30.848Z,99382.50
2018-08-30T10:16:58.067Z,99382.44
2018-08-30T10:19:25.206Z,99384.23
2018-08-30T10:21:52.416Z,99382.00
2018-08-30T10:24:19.611Z,99377.67
2018-08-30T10:26:46.757Z,99377.20
2018-08-30T10:29:13.885Z,99373.97
2018-08-30T10:31:41.122Z,99377.27
2018-08-30T10:34:08.211Z,99380.86
2018-08-30T10:36:35.430Z,99385.50
2018-08-30T10:39:04.368Z,99384.06
2018-08-30T10:41:31.594Z,99379.52
2018-08-30T10:43:58.824Z,99386.94
2018-08-30T10:46:25.976Z,99384.42
2018-08-30T10:48:53.106Z,99383.27
2018-08-30T10:51:20.284Z,99377.07
2018-08-30T10:53:47.509Z,99380.97
2018-08-30T10:56:14.834Z,99369.42
2018-08-30T10:58:42.876Z,99379.34
2018-08-30T11:01:10.018Z,99368.67
2018-08-30T11:03:37.332Z,99312.78
2018-08-30T11:06:04.681Z,99374.91
2018-08-30T11:08:31.945Z,99380.53
2018-08-30T11:10:59.185Z,99372.23
2018-08-30T11:13:26.425Z,99373.65
2018-08-30T11:15:53.572Z,99376.80
2018-08-30T11:18:20.791Z,99378.05
2018-08-30T11:20:47.938Z,99379.28
2018-08-30T11:23:15.120Z,99375.36
2018-08-30T11:25:42.687Z,99371.97
2018-08-30T11:28:10.159Z,99366.84
2018-08-30T11:30:37.322Z,99368.51
2018-08-30T11:33:04.738Z,99364.55
2018-08-30T11:35:31.945Z,99365.46
2018-08-30T11:37:59.147Z,99356.77
2018-08-30T11:40:26.290Z,99364.41
2018-08-30T11:42:53.482Z,99360.83
2018-08-30T11:45:20.806Z,99359.27
2018-08-30T11:47:47.945Z,99354.44
2018-08-30T11:50:15.186Z,99360.52
2018-08-30T11:52:42.400Z,99361.81
2018-08-30T11:55:09.542Z,99365.48
2018-08-30T11:57:37.959Z,99356.98
2018-08-30T12:00:05.746Z,99365.58
2018-08-30T12:02:33.137Z,99360.06
2018-08-30T12:05:00.333Z,99369.63
2018-08-30T12:07:27.588Z,99372.45
2018-08-30T12:09:56.844Z,99376.73
2018-08-30T12:12:22.562Z,99371.66
2018-08-30T12:14:50.471Z,99369.64
2018-08-30T12:17:17.736Z,99371.75
2018-08-30T12:19:44.909Z,99368.63
2018-08-30T12:22:12.394Z,99373.09
2018-08-30T12:24:40.053Z,99366.31
2018-08-30T12:27:07.292Z,99371.30
2018-08-30T12:29:34.528Z,99366.86
2018-08-30T12:32:03.387Z,99365.95
2018-08-30T12:34:30.673Z,99367.30
2018-08-30T12:36:57.813Z,99377.53
2018-08-30T12:39:25.466Z,99375.52
2018-08-30T12:41:52.909Z,99373.73
2018-08-30T12:44:20.069Z,99376.78
2018-08-30T12:46:47.319Z,99373.98
2018-08-30T12:49:14.575Z,99376.48
2018-08-30T12:51:42.605Z,99380.64
2018-08-30T12:54:09.734Z,99372.03
2018-08-30T12:56:36.881Z,99366.72
2018-08-30T12:59:09.766Z,99372.40
2018-08-30T13:01:36.905Z,99370.55
2018-08-30T13:04:04.594Z,99371.19
2018-08-30T13:06:32.141Z,99372.32
2018-08-30T13:08:59.513Z,99369.37
2018-08-30T13:11:26.598Z,99368.41
2018-08-30T13:13:53.867Z,99364.88
2018-08-30T13:16:21.411Z,99372.80
2018-08-30T13:18:48.548Z,99375.19
2018-08-30T13:21:15.890Z,99376.31
2018-08-30T13:23:43.654Z,99374.92
2018-08-30T13:26:11.324Z,99365.76
2018-08-30T13:28:38.741Z,99371.96
2018-08-30T13:31:06.007Z,99369.77
2018-08-30T13:33:33.176Z,99370.29
2018-08-30T13:36:00.598Z,99379.67
2018-08-30T13:38:28.051Z,99375.45
2018-08-30T13:40:55.295Z,99373.85
2018-08-30T13:43:22.226Z,99366.78
2018-08-30T13:45:49.407Z,99365.38
2018-08-30T13:48:16.461Z,99369.41
2018-08-30T13:50:43.913Z,99365.80
2018-08-30T13:53:11.318Z,99369.24
2018-08-30T13:55:38.595Z,99369.91
2018-08-30T13:58:06.843Z,99371.63
2018-08-30T14:00:34.129Z,99377.59
2018-08-30T14:03:00.983Z,99373.91
2018-08-30T14:05:28.094Z,99375.38
2018-08-30T14:07:55.421Z,99374.07
2018-08-30T14:10:23.056Z,99374.04
2018-08-30T14:12:50.204Z,99374.70
2018-08-30T14:15:17.478Z,99374.31
2018-08-30T14:17:44.284Z,99380.38
2018-08-30T14:20:11.521Z,99383.52
2018-08-30T14:22:40.610Z,99382.25
2018-08-30T14:25:09.273Z,99383.56
2018-08-30T14:27:36.503Z,99380.19
2018-08-30T14:30:03.787Z,99374.77
2018-08-30T14:32:31.023Z,99377.53
2018-08-30T14:34:58.230Z,99377.47
2018-08-30T14:37:25.740Z,99383.45
2018-08-30T14:39:53.473Z,99379.56
2018-08-30T14:42:20.756Z,99375.70
2018-08-30T14:44:48.091Z,99375.88
2018-08-30T14:47:15.264Z,99377.88
2018-08-30T14:49:42.412Z,99341.56
2018-08-30T14:52:09.656Z,99377.44
2018-08-30T14:54:36.872Z,99380.50
2018-08-30T14:57:04.319Z,99381.84
2018-08-30T14:59:31.541Z,99380.83
2018-08-30T15:01:58.662Z,99375.71
2018-08-30T15:04:25.876Z,99378.08
2018-08-30T15:06:53.049Z,99385.72
2018-08-30T15:09:20.411Z,99382.97
2018-08-30T15:11:47.696Z,99384.37
2018-08-30T15:14:14.954Z,99381.63
2018-08-30T15:16:42.200Z,99380.50
2018-08-30T15:19:11.303Z,99378.00
2018-08-30T15:21:38.455Z,99380.83
2018-08-30T15:24:05.712Z,99383.14
2018-08-30T15:26:32.939Z,99384.26
2018-08-30T15:29:00.172Z,99388.48
2018-08-30T15:31:27.388Z,99384.38
2018-08-30T15:33:54.676Z,99385.95
2018-08-30T15:36:22.221Z,99388.41
2018-08-30T15:38:49.314Z,99386.20
2018-08-30T15:41:16.623Z,99388.63
2018-08-30T15:43:43.877Z,99380.11
2018-08-30T15:46:11.381Z,99389.38
2018-08-30T15:48:38.781Z,99392.14
2018-08-30T15:51:05.911Z,99390.69
2018-08-30T15:53:33.347Z,99367.18
2018-08-30T15:56:01.193Z,99392.36
2018-08-30T15:58:28.374Z,99384.73
2018-08-30T16:00:55.546Z,99386.70
2018-08-30T16:03:22.710Z,99380.75
2018-08-30T16:05:49.830Z,99380.79
2018-08-30T16:08:17.010Z,99375.14
2018-08-30T16:10:44.134Z,99378.55
2018-08-30T16:13:11.566Z,99377.82
2018-08-30T16:15:38.630Z,99379.56
2018-08-30T16:20:40.191Z,99378.40
2018-08-30T16:23:14.589Z,99377.34
2018-08-30T16:25:42.073Z,99373.32
2018-08-30T16:28:10.091Z,99374.44
2018-08-30T16:30:37.300Z,99370.81
2018-08-30T16:33:04.389Z,99370.09
2018-08-30T16:35:31.591Z,99368.35
2018-08-30T16:37:58.790Z,99371.36
2018-08-30T16:40:25.954Z,99370.16
2018-08-30T16:42:53.145Z,99362.03
2018-08-30T16:45:20.341Z,99369.63
2018-08-30T16:47:47.544Z,99371.03
2018-08-30T16:50:14.763Z,99373.03
2018-08-30T16:52:42.099Z,99375.06
2018-08-30T16:55:09.331Z,99371.58
2018-08-30T16:57:36.571Z,99370.56
2018-08-30T17:00:03.851Z,99372.45
2018-08-30T17:02:31.006Z,99381.38
2018-08-30T17:04:58.758Z,99374.27
2018-08-30T17:07:26.010Z,99378.61
2018-08-30T17:09:53.170Z,99371.97
2018-08-30T17:12:20.530Z,99377.20
2018-08-30T17:14:47.759Z,99370.56
2018-08-30T17:17:15.073Z,99371.11
2018-08-30T17:19:42.114Z,99369.15
2018-08-30T17:22:09.477Z,99368.89
2018-08-30T17:24:36.624Z,99376.08
2018-08-30T17:27:03.877Z,99372.05
2018-08-30T17:29:31.044Z,99369.77
2018-08-30T17:31:58.202Z,99358.81
2018-08-30T17:34:25.398Z,99356.52
2018-08-30T17:36:52.692Z,99360.08
2018-08-30T17:39:19.852Z,99361.89
2018-08-30T17:41:47.094Z,99353.41
2018-08-30T17:44:14.758Z,99365.00
2018-08-30T17:46:41.948Z,99361.91
2018-08-30T17:49:09.135Z,99361.73
2018-08-30T17:51:36.376Z,99364.17
2018-08-30T17:54:03.582Z,99366.86
2018-08-30T17:56:30.819Z,99370.55
2018-08-30T17:59:00.366Z,99372.11
2018-08-30T18:01:27.649Z,99376.05
2018-08-30T18:03:54.707Z,99377.30
2018-08-30T18:06:21.853Z,99384.18
2018-08-30T18:08:49.235Z,99386.25
2018-08-30T18:11:16.246Z,99381.41
2018-08-30T18:13:43.422Z,99381.86
2018-08-30T18:16:10.545Z,99376.72
2018-08-30T18:18:37.781Z,99382.92
2018-08-30T18:21:04.854Z,99378.06
2018-08-30T18:23:32.171Z,99379.05
2018-08-30T18:25:59.343Z,99381.22
2018-08-30T18:28:26.527Z,99387.83
2018-08-30T18:30:53.654Z,99384.66
2018-08-30T18:33:20.838Z,99390.19
2018-08-30T18:35:47.994Z,99395.48
2018-08-30T18:38:15.595Z,99392.28
2018-08-30T18:40:42.876Z,99394.91
2018-08-30T18:43:10.077Z,99397.11
2018-08-30T18:45:37.251Z,99409.17
2018-08-30T18:48:04.485Z,99406.98
2018-08-30T18:50:31.691Z,99414.05
2018-08-30T18:52:58.875Z,99417.75
2018-08-30T18:55:26.037Z,99417.38
2018-08-30T18:57:53.295Z,99416.60
2018-08-30T19:00:20.572Z,99423.23
2018-08-30T19:02:48.108Z,99421.41
2018-08-30T19:05:15.310Z,99426.55
2018-08-30T19:07:42.458Z,99424.56
2018-08-30T19:10:09.993Z,99425.58
2018-08-30T19:12:37.238Z,99428.86
2018-08-30T19:15:10.036Z,99434.23
2018-08-30T19:17:42.985Z,99433.52
2018-08-30T19:20:10.181Z,99435.64
2018-08-30T19:22:37.317Z,99435.69
2018-08-30T19:25:10.142Z,99442.50
2018-08-30T19:27:37.314Z,99439.65
2018-08-30T19:30:10.252Z,99437.95
2018-08-30T19:32:37.403Z,99441.04
2018-08-30T19:35:10.493Z,99433.55
2018-08-30T19:37:37.691Z,99435.34
2018-08-30T19:40:08.000Z,99442.88
2018-08-30T19:42:35.326Z,99439.13
2018-08-30T19:45:02.432Z,99449.30
2018-08-30T19:47:29.627Z,99453.22
2018-08-30T19:49:56.811Z,99457.07
2018-08-30T19:52:24.057Z,99452.87
2018-08-30T19:54:51.253Z,99449.52
2018-08-30T19:57:18.516Z,99448.33
2018-08-30T19:59:45.666Z,99443.02
2018-08-30T20:02:12.817Z,99443.69
2018-08-30T20:04:40.001Z,99443.82
2018-08-30T20:07:07.155Z,99454.56
2018-08-30T20:09:34.601Z,99456.39
2018-08-30T20:12:01.796Z,99462.30
2018-08-30T20:14:28.941Z,99462.09
2018-08-30T20:16:56.120Z,99465.64
2018-08-30T20:19:23.565Z,99464.00
2018-08-30T20:21:50.727Z,99467.56
2018-08-30T20:24:17.850Z,99458.83
2018-08-30T20:26:45.188Z,99453.48
2018-08-30T20:29:12.498Z,99462.33
2018-08-30T20:31:39.669Z,99458.25
2018-08-30T20:34:06.834Z,99457.41
2018-08-30T20:36:34.023Z,99459.09
2018-08-30T20:39:01.214Z,99452.48
2018-08-30T20:41:28.454Z,99464.82
2018-08-30T20:43:55.658Z,99474.59
2018-08-30T20:46:22.852Z,99474.39
2018-08-30T20:48:50.042Z,99471.65
2018-08-30T20:51:17.183Z,99462.10
2018-08-30T20:53:44.387Z,99468.86
2018-08-30T20:56:11.585Z,99466.69
2018-08-30T20:58:38.761Z,99464.31
2018-08-30T21:01:05.874Z,99469.89
2018-08-30T21:03:33.050Z,99465.77
2018-08-30T21:06:00.372Z,99474.13
2018-08-30T21:08:27.526Z,99468.79
2018-08-30T21:10:54.665Z,99465.81
2018-08-30T21:13:21.796Z,99471.03
2018-08-30T21:15:49.033Z,99474.36
2018-08-30T21:18:16.126Z,99474.58
2018-08-30T21:20:43.274Z,99472.47
2018-08-30T21:23:10.456Z,99476.27
2018-08-30T21:25:37.598Z,99476.61
2018-08-30T21:28:05.017Z,99468.44
2018-08-30T21:30:32.278Z,99472.28
2018-08-30T21:32:59.448Z,99464.27
2018-08-30T21:35:26.689Z,99466.22
2018-08-30T21:37:54.471Z,99462.89
2018-08-30T21:40:21.642Z,99467.09
2018-08-30T21:42:48.786Z,99470.94
2018-08-30T21:45:16.085Z,99471.55
2018-08-30T21:47:43.180Z,99469.02
2018-08-30T21:50:10.376Z,99470.39
2018-08-30T21:52:37.669Z,99473.35
2018-08-30T21:55:05.110Z,99472.92
2018-08-30T21:57:32.342Z,99479.62
2018-08-30T21:59:59.505Z,99481.50
2018-08-30T22:02:26.741Z,99480.36
2018-08-30T22:04:53.828Z,99476.63
2018-08-30T22:07:20.971Z,99481.00
2018-08-30T22:09:48.146Z,99469.38
2018-08-30T22:12:15.437Z,99469.71
2018-08-30T22:14:42.588Z,99457.66
2018-08-30T22:17:09.760Z,99457.16
2018-08-30T22:19:36.890Z,99457.70
2018-08-30T22:22:04.082Z,99466.17
2018-08-30T22:24:31.220Z,99460.87
2018-08-30T22:26:58.350Z,99461.70
2018-08-30T22:29:25.612Z,99460.33
2018-08-30T22:31:52.752Z,99453.88
2018-08-30T22:34:19.888Z,99456.59
2018-08-30T22:36:47.269Z,99463.04
2018-08-30T22:39:14.542Z,99456.20
2018-08-30T22:41:41.729Z,99453.30
2018-08-30T22:44:08.956Z,99447.98
2018-08-30T22:46:36.167Z,99449.66
2018-08-30T22:49:03.437Z,99449.43
2018-08-30T22:51:30.622Z,99451.89
2018-08-30T22:53:57.810Z,99457.13
2018-08-30T22:56:25.026Z,99455.16
2018-08-30T22:58:52.292Z,99451.72
2018-08-30T23:01:19.675Z,99453.63
2018-08-30T23:03:46.822Z,99453.63
2018-08-30T23:06:13.947Z,99448.64
2018-08-30T23:08:41.085Z,99445.47
2018-08-30T23:11:08.197Z,99442.71
2018-08-30T23:13:35.396Z,99440.88
2018-08-30T23:16:02.604Z,99441.17
2018-08-30T23:18:29.759Z,99441.09
2018-08-30T23:20:56.963Z,99434.56
2018-08-30T23:23:24.077Z,99434.95
2018-08-30T23:25:51.249Z,99434.06
2018-08-30T23:28:18.395Z,99430.20
2018-08-30T23:30:45.648Z,99426.64
2018-08-30T23:33:12.793Z,99431.71
2018-08-30T23:35:40.016Z,99429.41
2018-08-30T23:38:07.442Z,99422.10
2018-08-30T23:40:34.776Z,99416.30
2018-08-30T23:43:01.899Z,99418.66
2018-08-30T23:45:29.094Z,99412.28
2018-08-30T23:47:56.201Z,99414.41
2018-08-30T23:50:23.338Z,99411.58
2018-08-30T23:52:50.444Z,99411.60
2018-08-30T23:55:17.594Z,99413.17
2018-08-30T23:57:56.494Z,99419.90
